Terminal Aerodrome Forecast
Issued by NWS Amarillo, TX

Home | Current Version | Previous Version | Text Only | Print | Product List | Glossary On
Versions: 1 2 3 4 5 6 7 8 9 10 11 12
000
FTUS44 KAMA 191120
TAFDHT
TAF
KDHT 191120Z 1912/2012 21008KT P6SM SCT250
      TEMPO 1912/1915 5SM BR
     FM191800 19013G21KT P6SM SCT060
     FM200100 22010KT P6SM BKN250=

USA.gov is the U.S. government's official web portal to all federal, state and local government web resources and services.